North Wichita, Kansas
Current Conditions -  °F | °C
As of 10:54 PM on Friday 28 Nov 2014 (Local Time) from KAAO Reporting Station
Clear Clear  
Wind Chill: 52°   Ceiling: Unl
Heat Index: 52°   Visibility: 10mi
Dew Point: 41°   Wind: 9mph
Humidity: 66%   Direction: 180°S
Pressure: 29.76"   Gusts: NA
Location:  37.7735°N, 97.3663°W
Report Text: KAAO 290454Z AUTO 18008KT 10SM CLR 11/05 A2976 RMK AO2 SLP078 T01110050
Loading
Personal Weather Stations






























Interactive Weather Map New forecast layout! Learn more

10-Day Weather Forecast

Advertisements
Track Severe Weather on mobile